sensor_id;sensor_type;location;lat;lon;timestamp;temperature;humidity
23087;DHT22;11712;51.134;4.156;2023-05-17T00:01:51;9.30;99.90
23087;DHT22;11712;51.134;4.156;2023-05-17T00:04:17;9.20;99.90
23087;DHT22;11712;51.134;4.156;2023-05-17T00:06:43;9.20;99.90
23087;DHT22;11712;51.134;4.156;2023-05-17T00:09:09;9.20;99.90
23087;DHT22;11712;51.134;4.156;2023-05-17T00:11:35;9.30;99.90
23087;DHT22;11712;51.134;4.156;2023-05-17T00:14:01;9.30;99.90
23087;DHT22;11712;51.134;4.156;2023-05-17T00:16:26;9.30;99.90
23087;DHT22;11712;51.134;4.156;2023-05-17T00:18:52;9.30;99.90
23087;DHT22;11712;51.134;4.156;2023-05-17T00:21:18;9.30;99.90
23087;DHT22;11712;51.134;4.156;2023-05-17T00:23:44;9.30;99.90
23087;DHT22;11712;51.134;4.156;2023-05-17T00:26:10;9.30;99.90
23087;DHT22;11712;51.134;4.156;2023-05-17T00:28:35;9.20;99.90
23087;DHT22;11712;51.134;4.156;2023-05-17T00:31:01;9.30;99.90
23087;DHT22;11712;51.134;4.156;2023-05-17T00:33:27;9.20;99.90
23087;DHT22;11712;51.134;4.156;2023-05-17T00:35:52;9.20;99.90
23087;DHT22;11712;51.134;4.156;2023-05-17T00:38:18;9.00;99.90
23087;DHT22;11712;51.134;4.156;2023-05-17T00:40:44;9.00;99.90
23087;DHT22;11712;51.134;4.156;2023-05-17T00:43:10;9.00;99.90
23087;DHT22;11712;51.134;4.156;2023-05-17T00:45:36;8.90;99.90
23087;DHT22;11712;51.134;4.156;2023-05-17T00:48:01;8.90;99.90
23087;DHT22;11712;51.134;4.156;2023-05-17T00:50:27;8.90;99.90
23087;DHT22;11712;51.134;4.156;2023-05-17T00:52:54;8.90;99.90
23087;DHT22;11712;51.134;4.156;2023-05-17T00:55:20;8.90;99.90
23087;DHT22;11712;51.134;4.156;2023-05-17T00:57:45;8.80;99.90
23087;DHT22;11712;51.134;4.156;2023-05-17T01:00:12;8.80;99.90
23087;DHT22;11712;51.134;4.156;2023-05-17T01:02:38;8.70;99.90
23087;DHT22;11712;51.134;4.156;2023-05-17T01:05:04;8.70;99.90
23087;DHT22;11712;51.134;4.156;2023-05-17T01:07:30;8.80;99.90
23087;DHT22;11712;51.134;4.156;2023-05-17T01:09:56;8.80;99.90
23087;DHT22;11712;51.134;4.156;2023-05-17T01:17:45;8.80;99.90
23087;DHT22;11712;51.134;4.156;2023-05-17T01:20:35;8.70;99.90
23087;DHT22;11712;51.134;4.156;2023-05-17T01:26:27;8.80;99.90
23087;DHT22;11712;51.134;4.156;2023-05-17T01:28:54;8.70;99.90
23087;DHT22;11712;51.134;4.156;2023-05-17T01:31:22;8.60;99.90
23087;DHT22;11712;51.134;4.156;2023-05-17T01:33:49;8.50;99.90
23087;DHT22;11712;51.134;4.156;2023-05-17T01:36:15;8.50;99.90
23087;DHT22;11712;51.134;4.156;2023-05-17T01:38:40;8.50;99.90
23087;DHT22;11712;51.134;4.156;2023-05-17T01:46:32;8.40;99.90
23087;DHT22;11712;51.134;4.156;2023-05-17T01:51:35;8.50;99.90
23087;DHT22;11712;51.134;4.156;2023-05-17T01:54:04;8.70;99.90
23087;DHT22;11712;51.134;4.156;2023-05-17T01:56:40;8.70;99.90
23087;DHT22;11712;51.134;4.156;2023-05-17T01:59:06;8.70;99.90
23087;DHT22;11712;51.134;4.156;2023-05-17T02:01:34;8.70;99.90
23087;DHT22;11712;51.134;4.156;2023-05-17T02:04:00;8.90;99.90
23087;DHT22;11712;51.134;4.156;2023-05-17T02:06:26;8.90;99.90
23087;DHT22;11712;51.134;4.156;2023-05-17T02:08:52;8.90;99.90
23087;DHT22;11712;51.134;4.156;2023-05-17T02:11:18;9.00;99.90
23087;DHT22;11712;51.134;4.156;2023-05-17T02:13:43;9.00;99.90
23087;DHT22;11712;51.134;4.156;2023-05-17T02:16:09;8.80;99.90
23087;DHT22;11712;51.134;4.156;2023-05-17T02:18:35;8.70;99.90
23087;DHT22;11712;51.134;4.156;2023-05-17T02:21:02;8.60;99.90
23087;DHT22;11712;51.134;4.156;2023-05-17T02:23:28;8.50;99.90
23087;DHT22;11712;51.134;4.156;2023-05-17T02:25:54;8.50;99.90
23087;DHT22;11712;51.134;4.156;2023-05-17T02:28:19;8.60;99.90
23087;DHT22;11712;51.134;4.156;2023-05-17T02:30:45;8.70;99.90
23087;DHT22;11712;51.134;4.156;2023-05-17T02:33:11;8.60;99.90
23087;DHT22;11712;51.134;4.156;2023-05-17T02:35:36;8.60;99.90
23087;DHT22;11712;51.134;4.156;2023-05-17T02:38:02;8.50;99.90
23087;DHT22;11712;51.134;4.156;2023-05-17T02:40:28;8.60;99.90
23087;DHT22;11712;51.134;4.156;2023-05-17T02:42:53;8.50;99.90
23087;DHT22;11712;51.134;4.156;2023-05-17T02:45:19;8.40;99.90
23087;DHT22;11712;51.134;4.156;2023-05-17T02:47:45;8.50;99.90
23087;DHT22;11712;51.134;4.156;2023-05-17T02:50:10;8.50;99.90
23087;DHT22;11712;51.134;4.156;2023-05-17T02:52:36;8.60;99.90
23087;DHT22;11712;51.134;4.156;2023-05-17T02:55:02;8.50;99.90
23087;DHT22;11712;51.134;4.156;2023-05-17T02:57:28;8.60;99.90
23087;DHT22;11712;51.134;4.156;2023-05-17T02:59:54;8.60;99.90
23087;DHT22;11712;51.134;4.156;2023-05-17T03:02:20;8.50;99.90
23087;DHT22;11712;51.134;4.156;2023-05-17T03:04:45;8.50;99.90
23087;DHT22;11712;51.134;4.156;2023-05-17T03:07:11;8.50;99.90
23087;DHT22;11712;51.134;4.156;2023-05-17T03:09:37;8.50;99.90
23087;DHT22;11712;51.134;4.156;2023-05-17T03:12:03;8.50;99.90
23087;DHT22;11712;51.134;4.156;2023-05-17T03:14:28;8.40;99.90
23087;DHT22;11712;51.134;4.156;2023-05-17T03:16:54;8.40;99.90
23087;DHT22;11712;51.134;4.156;2023-05-17T03:19:20;8.40;99.90
23087;DHT22;11712;51.134;4.156;2023-05-17T03:21:45;8.50;99.90
23087;DHT22;11712;51.134;4.156;2023-05-17T03:24:11;8.50;99.90
23087;DHT22;11712;51.134;4.156;2023-05-17T03:26:37;8.50;99.90
23087;DHT22;11712;51.134;4.156;2023-05-17T03:29:02;8.60;99.90
23087;DHT22;11712;51.134;4.156;2023-05-17T03:31:28;8.50;99.90
23087;DHT22;11712;51.134;4.156;2023-05-17T03:33:54;8.60;99.90
23087;DHT22;11712;51.134;4.156;2023-05-17T03:36:20;8.60;99.90
23087;DHT22;11712;51.134;4.156;2023-05-17T03:38:46;8.70;99.90
23087;DHT22;11712;51.134;4.156;2023-05-17T03:41:11;8.70;99.90
23087;DHT22;11712;51.134;4.156;2023-05-17T03:43:37;8.80;99.90
23087;DHT22;11712;51.134;4.156;2023-05-17T03:46:03;9.00;99.90
23087;DHT22;11712;51.134;4.156;2023-05-17T03:48:28;9.00;99.90
23087;DHT22;11712;51.134;4.156;2023-05-17T03:50:54;9.00;99.90
23087;DHT22;11712;51.134;4.156;2023-05-17T03:53:20;9.00;99.90
23087;DHT22;11712;51.134;4.156;2023-05-17T03:55:46;9.10;99.90
23087;DHT22;11712;51.134;4.156;2023-05-17T03:58:12;9.20;99.90
23087;DHT22;11712;51.134;4.156;2023-05-17T04:00:37;9.30;99.90
23087;DHT22;11712;51.134;4.156;2023-05-17T04:03:03;9.30;99.90
23087;DHT22;11712;51.134;4.156;2023-05-17T04:05:29;9.40;99.90
23087;DHT22;11712;51.134;4.156;2023-05-17T04:07:54;9.50;99.90
23087;DHT22;11712;51.134;4.156;2023-05-17T04:10:21;9.70;99.90
23087;DHT22;11712;51.134;4.156;2023-05-17T04:12:46;9.70;99.90
23087;DHT22;11712;51.134;4.156;2023-05-17T04:15:12;9.60;99.90
23087;DHT22;11712;51.134;4.156;2023-05-17T04:17:38;9.60;99.90
23087;DHT22;11712;51.134;4.156;2023-05-17T04:20:04;9.60;99.90
23087;DHT22;11712;51.134;4.156;2023-05-17T04:22:31;9.70;99.90
23087;DHT22;11712;51.134;4.156;2023-05-17T04:24:57;9.70;99.90
23087;DHT22;11712;51.134;4.156;2023-05-17T04:27:23;9.70;99.90
23087;DHT22;11712;51.134;4.156;2023-05-17T04:29:48;9.80;99.90
23087;DHT22;11712;51.134;4.156;2023-05-17T04:32:14;9.90;99.90
23087;DHT22;11712;51.134;4.156;2023-05-17T04:34:41;9.90;99.90
23087;DHT22;11712;51.134;4.156;2023-05-17T04:37:07;9.90;99.90
23087;DHT22;11712;51.134;4.156;2023-05-17T04:39:33;9.90;99.90
23087;DHT22;11712;51.134;4.156;2023-05-17T04:41:59;10.00;99.90
23087;DHT22;11712;51.134;4.156;2023-05-17T04:44:25;10.10;99.90
23087;DHT22;11712;51.134;4.156;2023-05-17T04:46:51;10.30;99.90
23087;DHT22;11712;51.134;4.156;2023-05-17T04:49:17;10.20;99.90
23087;DHT22;11712;51.134;4.156;2023-05-17T04:51:43;10.30;99.90
23087;DHT22;11712;51.134;4.156;2023-05-17T04:54:09;10.40;99.90
23087;DHT22;11712;51.134;4.156;2023-05-17T04:56:35;10.50;99.90
23087;DHT22;11712;51.134;4.156;2023-05-17T04:59:01;10.60;99.90
23087;DHT22;11712;51.134;4.156;2023-05-17T05:01:27;10.60;99.90
23087;DHT22;11712;51.134;4.156;2023-05-17T05:03:56;10.70;99.90
23087;DHT22;11712;51.134;4.156;2023-05-17T05:06:22;10.80;99.90
23087;DHT22;11712;51.134;4.156;2023-05-17T05:08:48;11.00;99.90
23087;DHT22;11712;51.134;4.156;2023-05-17T05:11:13;10.90;99.90
23087;DHT22;11712;51.134;4.156;2023-05-17T05:13:39;10.80;99.90
23087;DHT22;11712;51.134;4.156;2023-05-17T05:16:06;10.90;99.90
23087;DHT22;11712;51.134;4.156;2023-05-17T05:18:32;10.90;99.90
23087;DHT22;11712;51.134;4.156;2023-05-17T05:20:58;10.90;99.90
23087;DHT22;11712;51.134;4.156;2023-05-17T05:23:24;11.00;99.90
23087;DHT22;11712;51.134;4.156;2023-05-17T05:25:50;11.30;99.90
23087;DHT22;11712;51.134;4.156;2023-05-17T05:28:15;11.20;99.90
23087;DHT22;11712;51.134;4.156;2023-05-17T05:30:41;11.30;99.90
23087;DHT22;11712;51.134;4.156;2023-05-17T05:33:07;11.50;99.90
23087;DHT22;11712;51.134;4.156;2023-05-17T05:35:33;11.40;99.90
23087;DHT22;11712;51.134;4.156;2023-05-17T05:37:59;11.50;99.90
23087;DHT22;11712;51.134;4.156;2023-05-17T05:40:24;11.40;99.90
23087;DHT22;11712;51.134;4.156;2023-05-17T05:42:50;11.50;99.90
23087;DHT22;11712;51.134;4.156;2023-05-17T05:45:17;11.60;99.90
23087;DHT22;11712;51.134;4.156;2023-05-17T05:47:43;11.70;99.90
23087;DHT22;11712;51.134;4.156;2023-05-17T05:50:09;11.90;99.90
23087;DHT22;11712;51.134;4.156;2023-05-17T05:52:35;11.90;99.90
23087;DHT22;11712;51.134;4.156;2023-05-17T05:55:01;12.00;99.90
23087;DHT22;11712;51.134;4.156;2023-05-17T05:57:27;12.00;99.90
23087;DHT22;11712;51.134;4.156;2023-05-17T05:59:52;12.10;99.90
23087;DHT22;11712;51.134;4.156;2023-05-17T06:02:18;12.30;99.90
23087;DHT22;11712;51.134;4.156;2023-05-17T06:04:46;12.30;99.90
23087;DHT22;11712;51.134;4.156;2023-05-17T06:07:12;12.40;99.90
23087;DHT22;11712;51.134;4.156;2023-05-17T06:09:38;12.50;99.90
23087;DHT22;11712;51.134;4.156;2023-05-17T06:12:04;12.60;99.90
23087;DHT22;11712;51.134;4.156;2023-05-17T06:14:30;12.60;99.90
23087;DHT22;11712;51.134;4.156;2023-05-17T06:16:56;12.40;99.90
23087;DHT22;11712;51.134;4.156;2023-05-17T06:19:21;12.30;99.90
23087;DHT22;11712;51.134;4.156;2023-05-17T06:21:47;12.50;99.90
23087;DHT22;11712;51.134;4.156;2023-05-17T06:24:14;12.80;99.90
23087;DHT22;11712;51.134;4.156;2023-05-17T06:26:40;13.00;99.90
23087;DHT22;11712;51.134;4.156;2023-05-17T06:29:05;13.20;99.90
23087;DHT22;11712;51.134;4.156;2023-05-17T06:31:31;13.20;99.90
23087;DHT22;11712;51.134;4.156;2023-05-17T06:33:57;13.40;99.90
23087;DHT22;11712;51.134;4.156;2023-05-17T06:36:23;13.50;99.90
23087;DHT22;11712;51.134;4.156;2023-05-17T06:38:49;13.60;99.90
23087;DHT22;11712;51.134;4.156;2023-05-17T06:41:15;13.70;99.90
23087;DHT22;11712;51.134;4.156;2023-05-17T06:43:40;13.80;99.90
23087;DHT22;11712;51.134;4.156;2023-05-17T06:46:06;13.80;99.90
23087;DHT22;11712;51.134;4.156;2023-05-17T06:48:32;13.80;99.90
23087;DHT22;11712;51.134;4.156;2023-05-17T06:50:57;13.90;99.90
23087;DHT22;11712;51.134;4.156;2023-05-17T06:53:23;13.80;99.90
23087;DHT22;11712;51.134;4.156;2023-05-17T06:55:49;14.00;99.90
23087;DHT22;11712;51.134;4.156;2023-05-17T06:58:14;14.20;99.90
23087;DHT22;11712;51.134;4.156;2023-05-17T07:00:40;14.20;99.90
23087;DHT22;11712;51.134;4.156;2023-05-17T07:03:06;14.30;99.90
23087;DHT22;11712;51.134;4.156;2023-05-17T07:05:31;14.30;99.90
23087;DHT22;11712;51.134;4.156;2023-05-17T07:07:58;14.30;99.90
23087;DHT22;11712;51.134;4.156;2023-05-17T07:10:23;14.50;99.90
23087;DHT22;11712;51.134;4.156;2023-05-17T07:12:49;14.30;99.90
23087;DHT22;11712;51.134;4.156;2023-05-17T07:15:15;14.10;99.90
23087;DHT22;11712;51.134;4.156;2023-05-17T07:17:40;13.90;99.90
23087;DHT22;11712;51.134;4.156;2023-05-17T07:20:07;13.80;99.90
23087;DHT22;11712;51.134;4.156;2023-05-17T07:22:32;14.20;99.90
23087;DHT22;11712;51.134;4.156;2023-05-17T07:24:58;14.50;99.90
23087;DHT22;11712;51.134;4.156;2023-05-17T07:27:24;14.50;99.90
23087;DHT22;11712;51.134;4.156;2023-05-17T07:29:50;14.40;99.90
23087;DHT22;11712;51.134;4.156;2023-05-17T07:32:15;14.60;99.90
23087;DHT22;11712;51.134;4.156;2023-05-17T07:34:42;14.70;99.90
23087;DHT22;11712;51.134;4.156;2023-05-17T07:37:08;14.70;99.90
23087;DHT22;11712;51.134;4.156;2023-05-17T07:39:33;14.90;99.90
23087;DHT22;11712;51.134;4.156;2023-05-17T07:41:59;15.30;99.90
23087;DHT22;11712;51.134;4.156;2023-05-17T07:44:25;15.60;99.90
23087;DHT22;11712;51.134;4.156;2023-05-17T07:46:50;15.60;99.90
23087;DHT22;11712;51.134;4.156;2023-05-17T07:49:16;15.80;99.90
23087;DHT22;11712;51.134;4.156;2023-05-17T07:51:42;16.00;99.90
23087;DHT22;11712;51.134;4.156;2023-05-17T07:54:08;16.20;99.90
23087;DHT22;11712;51.134;4.156;2023-05-17T07:56:33;16.20;99.90
23087;DHT22;11712;51.134;4.156;2023-05-17T07:58:59;16.00;99.90
23087;DHT22;11712;51.134;4.156;2023-05-17T08:01:25;15.90;99.90
23087;DHT22;11712;51.134;4.156;2023-05-17T08:03:51;15.90;99.90
23087;DHT22;11712;51.134;4.156;2023-05-17T08:06:18;16.00;99.90
23087;DHT22;11712;51.134;4.156;2023-05-17T08:08:44;16.20;99.90
23087;DHT22;11712;51.134;4.156;2023-05-17T08:11:11;16.60;99.90
23087;DHT22;11712;51.134;4.156;2023-05-17T08:13:36;16.70;99.90
23087;DHT22;11712;51.134;4.156;2023-05-17T08:16:02;16.50;99.90
23087;DHT22;11712;51.134;4.156;2023-05-17T08:18:32;16.00;99.90
23087;DHT22;11712;51.134;4.156;2023-05-17T08:20:58;15.60;99.90
23087;DHT22;11712;51.134;4.156;2023-05-17T08:23:24;15.50;99.90
23087;DHT22;11712;51.134;4.156;2023-05-17T08:25:50;15.40;99.90
23087;DHT22;11712;51.134;4.156;2023-05-17T08:28:16;15.50;99.90
23087;DHT22;11712;51.134;4.156;2023-05-17T08:30:42;15.50;99.90
23087;DHT22;11712;51.134;4.156;2023-05-17T08:33:11;15.70;99.90
23087;DHT22;11712;51.134;4.156;2023-05-17T08:35:36;15.90;99.90
23087;DHT22;11712;51.134;4.156;2023-05-17T08:38:02;15.90;99.90
23087;DHT22;11712;51.134;4.156;2023-05-17T08:40:28;15.80;99.90
23087;DHT22;11712;51.134;4.156;2023-05-17T08:42:54;15.70;99.90
23087;DHT22;11712;51.134;4.156;2023-05-17T08:45:19;15.50;99.90
23087;DHT22;11712;51.134;4.156;2023-05-17T08:47:46;15.50;99.90
23087;DHT22;11712;51.134;4.156;2023-05-17T08:50:13;15.60;99.90
23087;DHT22;11712;51.134;4.156;2023-05-17T08:52:40;15.80;99.90
23087;DHT22;11712;51.134;4.156;2023-05-17T08:55:06;16.00;99.90
23087;DHT22;11712;51.134;4.156;2023-05-17T08:57:34;16.00;99.90
23087;DHT22;11712;51.134;4.156;2023-05-17T09:00:23;15.70;99.90
23087;DHT22;11712;51.134;4.156;2023-05-17T09:02:50;15.90;99.90
23087;DHT22;11712;51.134;4.156;2023-05-17T09:05:16;16.10;99.90
23087;DHT22;11712;51.134;4.156;2023-05-17T09:07:42;16.20;99.90
23087;DHT22;11712;51.134;4.156;2023-05-17T09:10:09;16.30;99.90
23087;DHT22;11712;51.134;4.156;2023-05-17T09:12:35;16.20;99.90
23087;DHT22;11712;51.134;4.156;2023-05-17T09:15:15;16.10;99.90
23087;DHT22;11712;51.134;4.156;2023-05-17T09:17:41;16.30;99.90
23087;DHT22;11712;51.134;4.156;2023-05-17T09:20:08;16.30;99.90
23087;DHT22;11712;51.134;4.156;2023-05-17T09:22:35;16.20;99.90
23087;DHT22;11712;51.134;4.156;2023-05-17T09:25:02;16.00;99.90
23087;DHT22;11712;51.134;4.156;2023-05-17T09:27:30;16.10;99.90
23087;DHT22;11712;51.134;4.156;2023-05-17T09:29:56;16.10;99.90
23087;DHT22;11712;51.134;4.156;2023-05-17T09:32:22;16.20;99.90
23087;DHT22;11712;51.134;4.156;2023-05-17T09:34:50;16.20;99.90
23087;DHT22;11712;51.134;4.156;2023-05-17T09:37:18;16.20;99.90
23087;DHT22;11712;51.134;4.156;2023-05-17T09:39:45;16.00;99.90
23087;DHT22;11712;51.134;4.156;2023-05-17T09:42:15;16.20;99.90
23087;DHT22;11712;51.134;4.156;2023-05-17T09:44:48;16.40;99.90
23087;DHT22;11712;51.134;4.156;2023-05-17T09:47:27;16.50;99.90
23087;DHT22;11712;51.134;4.156;2023-05-17T09:49:55;16.50;99.90
23087;DHT22;11712;51.134;4.156;2023-05-17T09:52:22;16.40;99.90
23087;DHT22;11712;51.134;4.156;2023-05-17T09:54:56;16.30;99.90
23087;DHT22;11712;51.134;4.156;2023-05-17T09:57:22;16.20;99.90
23087;DHT22;11712;51.134;4.156;2023-05-17T09:59:49;16.30;99.90
23087;DHT22;11712;51.134;4.156;2023-05-17T10:02:20;16.40;99.90
23087;DHT22;11712;51.134;4.156;2023-05-17T10:04:49;16.30;99.90
23087;DHT22;11712;51.134;4.156;2023-05-17T10:07:19;16.30;99.90
23087;DHT22;11712;51.134;4.156;2023-05-17T10:09:49;16.20;99.90
23087;DHT22;11712;51.134;4.156;2023-05-17T10:12:17;16.10;99.90
23087;DHT22;11712;51.134;4.156;2023-05-17T10:14:44;16.20;99.90
23087;DHT22;11712;51.134;4.156;2023-05-17T10:17:10;16.20;99.90
23087;DHT22;11712;51.134;4.156;2023-05-17T10:19:37;16.20;99.90
23087;DHT22;11712;51.134;4.156;2023-05-17T10:22:03;16.20;99.90
23087;DHT22;11712;51.134;4.156;2023-05-17T10:24:30;16.30;99.90
23087;DHT22;11712;51.134;4.156;2023-05-17T10:26:59;16.30;99.90
23087;DHT22;11712;51.134;4.156;2023-05-17T10:29:25;16.30;99.90
23087;DHT22;11712;51.134;4.156;2023-05-17T10:31:51;16.40;99.90
23087;DHT22;11712;51.134;4.156;2023-05-17T10:34:17;16.30;99.90
23087;DHT22;11712;51.134;4.156;2023-05-17T10:36:44;16.30;99.90
23087;DHT22;11712;51.134;4.156;2023-05-17T10:39:10;16.50;99.90
23087;DHT22;11712;51.134;4.156;2023-05-17T10:41:42;16.50;99.90
23087;DHT22;11712;51.134;4.156;2023-05-17T10:44:12;16.60;99.90
23087;DHT22;11712;51.134;4.156;2023-05-17T10:46:38;16.40;99.90
23087;DHT22;11712;51.134;4.156;2023-05-17T10:49:04;16.50;99.90
23087;DHT22;11712;51.134;4.156;2023-05-17T10:51:35;16.60;99.90
23087;DHT22;11712;51.134;4.156;2023-05-17T10:56:31;16.60;99.90
23087;DHT22;11712;51.134;4.156;2023-05-17T11:02:02;16.90;99.90
23087;DHT22;11712;51.134;4.156;2023-05-17T11:04:38;16.80;99.90
23087;DHT22;11712;51.134;4.156;2023-05-17T11:10:06;17.00;99.90
23087;DHT22;11712;51.134;4.156;2023-05-17T11:12:38;16.90;99.90
23087;DHT22;11712;51.134;4.156;2023-05-17T11:15:10;17.00;99.90
23087;DHT22;11712;51.134;4.156;2023-05-17T11:17:47;17.20;99.90
23087;DHT22;11712;51.134;4.156;2023-05-17T11:22:42;17.30;99.90
23087;DHT22;11712;51.134;4.156;2023-05-17T11:25:11;17.30;99.90
23087;DHT22;11712;51.134;4.156;2023-05-17T11:27:49;17.20;99.90
23087;DHT22;11712;51.134;4.156;2023-05-17T11:32:50;17.10;99.90
23087;DHT22;11712;51.134;4.156;2023-05-17T11:35:17;17.30;99.90
23087;DHT22;11712;51.134;4.156;2023-05-17T11:37:44;17.40;99.90
23087;DHT22;11712;51.134;4.156;2023-05-17T11:40:10;17.30;99.90
23087;DHT22;11712;51.134;4.156;2023-05-17T11:42:38;17.40;99.90
23087;DHT22;11712;51.134;4.156;2023-05-17T11:45:05;17.30;99.90
23087;DHT22;11712;51.134;4.156;2023-05-17T11:47:31;17.20;99.90
23087;DHT22;11712;51.134;4.156;2023-05-17T11:50:02;17.30;99.90
23087;DHT22;11712;51.134;4.156;2023-05-17T11:52:28;17.20;99.90
23087;DHT22;11712;51.134;4.156;2023-05-17T11:54:56;17.10;99.90
23087;DHT22;11712;51.134;4.156;2023-05-17T11:57:28;17.30;99.90
23087;DHT22;11712;51.134;4.156;2023-05-17T12:00:02;17.30;99.90
23087;DHT22;11712;51.134;4.156;2023-05-17T12:02:31;17.30;99.90
23087;DHT22;11712;51.134;4.156;2023-05-17T12:04:57;17.30;99.90
23087;DHT22;11712;51.134;4.156;2023-05-17T12:07:24;17.30;99.90
23087;DHT22;11712;51.134;4.156;2023-05-17T12:09:50;17.50;99.90
23087;DHT22;11712;51.134;4.156;2023-05-17T12:12:17;17.40;99.90
23087;DHT22;11712;51.134;4.156;2023-05-17T12:14:47;17.40;99.90
23087;DHT22;11712;51.134;4.156;2023-05-17T12:17:40;17.40;99.90
23087;DHT22;11712;51.134;4.156;2023-05-17T12:20:08;17.30;99.90
23087;DHT22;11712;51.134;4.156;2023-05-17T12:22:53;17.50;99.90
23087;DHT22;11712;51.134;4.156;2023-05-17T12:25:23;17.10;99.90
23087;DHT22;11712;51.134;4.156;2023-05-17T12:28:11;17.20;99.90
23087;DHT22;11712;51.134;4.156;2023-05-17T12:30:37;17.40;99.90
23087;DHT22;11712;51.134;4.156;2023-05-17T12:33:04;17.50;99.90
23087;DHT22;11712;51.134;4.156;2023-05-17T12:35:31;17.50;99.90
23087;DHT22;11712;51.134;4.156;2023-05-17T12:37:57;17.60;99.90
23087;DHT22;11712;51.134;4.156;2023-05-17T12:40:23;17.70;99.90
23087;DHT22;11712;51.134;4.156;2023-05-17T12:42:48;17.70;99.90
23087;DHT22;11712;51.134;4.156;2023-05-17T12:45:14;17.70;99.90
23087;DHT22;11712;51.134;4.156;2023-05-17T12:47:40;17.50;99.90
23087;DHT22;11712;51.134;4.156;2023-05-17T12:50:06;17.50;99.90
23087;DHT22;11712;51.134;4.156;2023-05-17T12:52:34;17.40;99.90
23087;DHT22;11712;51.134;4.156;2023-05-17T12:55:04;17.50;99.90
23087;DHT22;11712;51.134;4.156;2023-05-17T12:57:30;17.50;99.90
23087;DHT22;11712;51.134;4.156;2023-05-17T12:59:55;17.40;99.90
23087;DHT22;11712;51.134;4.156;2023-05-17T13:02:21;17.40;99.90
23087;DHT22;11712;51.134;4.156;2023-05-17T13:04:48;17.50;99.90
23087;DHT22;11712;51.134;4.156;2023-05-17T13:07:23;17.50;99.90
23087;DHT22;11712;51.134;4.156;2023-05-17T13:09:49;17.60;99.90
23087;DHT22;11712;51.134;4.156;2023-05-17T13:12:23;17.70;99.90
23087;DHT22;11712;51.134;4.156;2023-05-17T13:14:51;17.80;99.90
23087;DHT22;11712;51.134;4.156;2023-05-17T13:19:45;17.80;99.90
23087;DHT22;11712;51.134;4.156;2023-05-17T13:22:11;17.70;99.90
23087;DHT22;11712;51.134;4.156;2023-05-17T13:24:37;17.70;99.90
23087;DHT22;11712;51.134;4.156;2023-05-17T13:27:05;17.70;99.90
23087;DHT22;11712;51.134;4.156;2023-05-17T13:29:32;17.80;99.90
23087;DHT22;11712;51.134;4.156;2023-05-17T13:31:58;18.00;99.90
23087;DHT22;11712;51.134;4.156;2023-05-17T13:34:24;18.10;99.90
23087;DHT22;11712;51.134;4.156;2023-05-17T13:36:49;18.20;99.90
23087;DHT22;11712;51.134;4.156;2023-05-17T13:39:15;18.20;99.90
23087;DHT22;11712;51.134;4.156;2023-05-17T13:41:41;17.90;99.90
23087;DHT22;11712;51.134;4.156;2023-05-17T13:44:08;17.70;99.90
23087;DHT22;11712;51.134;4.156;2023-05-17T13:46:34;17.70;99.90
23087;DHT22;11712;51.134;4.156;2023-05-17T13:49:00;17.80;99.90
23087;DHT22;11712;51.134;4.156;2023-05-17T13:51:35;17.80;99.90
23087;DHT22;11712;51.134;4.156;2023-05-17T13:54:05;17.90;99.90
23087;DHT22;11712;51.134;4.156;2023-05-17T13:56:32;17.70;99.90
23087;DHT22;11712;51.134;4.156;2023-05-17T13:58:58;17.80;99.90
23087;DHT22;11712;51.134;4.156;2023-05-17T14:01:24;17.90;99.90
23087;DHT22;11712;51.134;4.156;2023-05-17T14:03:49;17.80;99.90
23087;DHT22;11712;51.134;4.156;2023-05-17T14:06:15;17.90;99.90
23087;DHT22;11712;51.134;4.156;2023-05-17T14:08:41;17.70;99.90
23087;DHT22;11712;51.134;4.156;2023-05-17T14:11:07;17.70;99.90
23087;DHT22;11712;51.134;4.156;2023-05-17T14:13:32;18.10;99.90
23087;DHT22;11712;51.134;4.156;2023-05-17T14:15:58;18.30;99.90
23087;DHT22;11712;51.134;4.156;2023-05-17T14:18:24;19.00;99.90
23087;DHT22;11712;51.134;4.156;2023-05-17T14:20:49;18.90;99.90
23087;DHT22;11712;51.134;4.156;2023-05-17T14:23:17;18.70;99.90
23087;DHT22;11712;51.134;4.156;2023-05-17T14:25:43;18.60;99.90
23087;DHT22;11712;51.134;4.156;2023-05-17T14:28:09;18.90;99.90
23087;DHT22;11712;51.134;4.156;2023-05-17T14:30:36;19.30;99.90
23087;DHT22;11712;51.134;4.156;2023-05-17T14:33:02;19.40;99.90
23087;DHT22;11712;51.134;4.156;2023-05-17T14:35:28;19.10;99.90
23087;DHT22;11712;51.134;4.156;2023-05-17T14:37:55;19.00;99.90
23087;DHT22;11712;51.134;4.156;2023-05-17T14:40:21;18.80;99.90
23087;DHT22;11712;51.134;4.156;2023-05-17T14:42:47;19.20;99.90
23087;DHT22;11712;51.134;4.156;2023-05-17T14:45:13;18.90;99.90
23087;DHT22;11712;51.134;4.156;2023-05-17T14:47:39;18.90;99.90
23087;DHT22;11712;51.134;4.156;2023-05-17T14:50:05;19.20;99.90
23087;DHT22;11712;51.134;4.156;2023-05-17T14:52:32;19.20;99.90
23087;DHT22;11712;51.134;4.156;2023-05-17T14:54:57;19.60;99.90
23087;DHT22;11712;51.134;4.156;2023-05-17T14:57:23;19.80;99.90
23087;DHT22;11712;51.134;4.156;2023-05-17T14:59:49;19.50;99.90
23087;DHT22;11712;51.134;4.156;2023-05-17T15:02:15;19.50;99.90
23087;DHT22;11712;51.134;4.156;2023-05-17T15:04:40;19.60;99.90
23087;DHT22;11712;51.134;4.156;2023-05-17T15:07:06;19.80;99.90
23087;DHT22;11712;51.134;4.156;2023-05-17T15:09:40;19.70;99.90
23087;DHT22;11712;51.134;4.156;2023-05-17T15:12:10;19.70;99.90
23087;DHT22;11712;51.134;4.156;2023-05-17T15:14:37;19.50;99.90
23087;DHT22;11712;51.134;4.156;2023-05-17T15:17:03;19.50;99.90
23087;DHT22;11712;51.134;4.156;2023-05-17T15:19:29;19.70;99.90
23087;DHT22;11712;51.134;4.156;2023-05-17T15:21:56;20.00;99.90
23087;DHT22;11712;51.134;4.156;2023-05-17T15:24:21;20.00;99.90
23087;DHT22;11712;51.134;4.156;2023-05-17T15:26:47;19.80;99.90
23087;DHT22;11712;51.134;4.156;2023-05-17T15:29:13;19.80;99.90
23087;DHT22;11712;51.134;4.156;2023-05-17T15:31:38;19.70;99.90
23087;DHT22;11712;51.134;4.156;2023-05-17T15:34:04;19.80;99.90
23087;DHT22;11712;51.134;4.156;2023-05-17T15:36:30;19.90;99.90
23087;DHT22;11712;51.134;4.156;2023-05-17T15:38:56;19.60;99.90
23087;DHT22;11712;51.134;4.156;2023-05-17T15:41:21;19.70;99.90
23087;DHT22;11712;51.134;4.156;2023-05-17T15:43:52;19.60;99.90
23087;DHT22;11712;51.134;4.156;2023-05-17T15:46:17;19.70;99.90
23087;DHT22;11712;51.134;4.156;2023-05-17T15:48:44;19.70;99.90
23087;DHT22;11712;51.134;4.156;2023-05-17T15:51:10;19.40;99.90
23087;DHT22;11712;51.134;4.156;2023-05-17T15:53:36;19.20;99.90
23087;DHT22;11712;51.134;4.156;2023-05-17T15:56:02;19.30;99.90
23087;DHT22;11712;51.134;4.156;2023-05-17T15:58:28;19.60;99.90
23087;DHT22;11712;51.134;4.156;2023-05-17T16:01:03;19.90;99.90
23087;DHT22;11712;51.134;4.156;2023-05-17T16:03:30;19.90;99.90
23087;DHT22;11712;51.134;4.156;2023-05-17T16:05:56;20.10;99.90